This is the latest recevied weather packets stored in our database for station/object ZL1CTS-2. If no packets are shown the sender has not sent any weather packets the latest 10 day(s).
| Time | Temp. | Humidity | Pressure | Rain* | Wind** | Luminosity | Snow |
|---|---|---|---|---|---|---|---|
| 1788134981 | 14.44° C | 93% | 997.7 hPa | 0.76 mm | - | - | - |
| 1788134867 | 14.44° C | 93% | 997.5 hPa | 0.76 mm | - | - | - |
| 1788134688 | 13.89° C | 91% | 997.5 hPa | 0.76 mm | - | - | - |
| 1788134648 | 13.89° C | 92% | 997.6 hPa | 0.76 mm | - | - | - |
| 1788134579 | 13.89° C | 90% | 997.6 hPa | 0.76 mm | - | - | - |
| 1788134055 | 15.56° C | 82% | 997.5 hPa | 0 mm | - | - | - |
| 1787990628 | 10.56° C | 90% | 1000.1 hPa | 0 mm | - | - | - |
| 1787990551 | 10.56° C | 90% | 1000 hPa | 0 mm | - | - | - |
| 1787973990 | 15.56° C | 74% | 1001.7 hPa | 0 mm | - | - | - |
| 1787973898 | 15.56° C | 74% | 1001.8 hPa | 0 mm | - | - | - |
| 1787956065 | 14.44° C | 99% | 1004.9 hPa | 0 mm | - | - | - |
| 1787949365 | 13.33° C | 99% | 1005 hPa | 0 mm | - | - | - |
| 1787949291 | 13.33° C | 99% | 1005 hPa | 0 mm | - | - | - |
| 1787891402 | 15° C | 91% | 1008.3 hPa | 0 mm | - | - | - |
| 1787887454 | 16.67° C | 82% | 1009.3 hPa | 0 mm | - | - | - |
| 1787886304 | 17.78° C | 76% | 1009.4 hPa | 0 mm | - | - | - |
| 1787885910 | 18.33° C | 75% | 1009.7 hPa | 0 mm | - | - | - |
| 1787885112 | 17.78° C | 73% | 1009.6 hPa | 0 mm | - | - | - |
| 1787885019 | 17.78° C | 73% | 1009.7 hPa | 0 mm | - | - | - |
| 1787884393 | 17.22° C | 75% | 1009.6 hPa | 0 mm | - | - | - |
| 1787884266 | 17.22° C | 75% | 1009.5 hPa | 0 mm | - | - | - |
| 1787884206 | 17.22° C | 76% | 1009.5 hPa | 0 mm | - | - | - |
| 1787884146 | 17.22° C | 76% | 1009.6 hPa | 0 mm | - | - | - |
| 1787884086 | 16.67° C | 77% | 1009.7 hPa | 0 mm | - | - | - |
| 1787884026 | 16.67° C | 77% | 1009.7 hPa | 0 mm | - | - | - |
* Rain latest hour (hover to see other rain measurements)
** Current wind speed in m/s (hover to see current wind gust speed)